Terminal Aerodrome Forecast
Issued by NWS

Home | Current Version | Previous Version | Text Only | Print | Product List | Glossary Off
Versions: 1 2 3 4 5 6 7 8 9 10 11 12

000
FTUS43 KICT 022333
TAFCNU
TAF
KCNU 022333Z 0300/0324 17011KT P6SM SCT200
     FM031500 18014G22KT P6SM SCT120
     FM031800 19021G31KT P6SM FEW150=

USA.gov is the U.S. government's official web portal to all federal, state and local government web resources and services.